Time;durP1;ratioP1;P1;durP2;ratioP2;P2;SDS_P1;SDS_P2;PMS_P1;PMS_P2;Temp;Humidity;BMP_temperature;BMP_pressure;BME280_temperature;BME280_humidity;BME280_pressure;Samples;Min_cycle;Max_cycle;Signal;HPM_P1;HPM_P2
2022/06/13 00:00:13;;;;;;;7.60;1.83;;;;;;;21.46;40.74;102369.03;5034297;28;20013;-78
2022/06/13 00:02:39;;;;;;;6.13;2.17;;;;;;;21.58;40.68;102367.06;5034291;28;20017;-78
2022/06/13 00:05:07;;;;;;;9.57;3.28;;;;;;;21.54;40.41;102368.13;5033838;28;20148;-91
2022/06/13 00:07:33;;;;;;;9.15;2.58;;;;;;;21.54;40.64;102368.94;5033984;28;20056;-77
2022/06/13 00:09:59;;;;;;;5.05;2.05;;;;;;;21.59;40.36;102365.88;5034062;28;20021;-77
2022/06/13 00:12:25;;;;;;;9.68;3.13;;;;;;;21.63;40.56;102366.03;5033822;28;20702;-78
2022/06/13 00:14:51;;;;;;;6.90;2.17;;;;;;;21.47;40.79;102368.69;5033815;28;20032;-78
2022/06/13 00:19:58;;;;;;;8.25;2.03;;;;;;;21.58;40.38;102364.28;5090403;27;20394;-77
2022/06/13 00:22:24;;;;;;;4.85;1.73;;;;;;;21.49;40.71;102371.94;5090178;28;20051;-78
2022/06/13 00:24:50;;;;;;;5.35;1.98;;;;;;;21.46;40.75;102372.63;5088813;28;20052;-78
2022/06/13 00:27:16;;;;;;;7.53;2.20;;;;;;;21.50;40.43;102375.53;5090097;28;20032;-77
2022/06/13 00:29:47;;;;;;;5.15;1.52;;;;;;;21.54;40.33;102376.47;5090130;28;20111;-78
2022/06/13 00:32:13;;;;;;;6.57;2.20;;;;;;;21.56;40.32;102377.72;5090058;28;20081;-78
2022/06/13 00:34:39;;;;;;;5.72;1.88;;;;;;;21.46;40.51;102380.97;5090121;28;20391;-78
2022/06/13 00:37:05;;;;;;;5.57;2.47;;;;;;;21.52;40.46;102379.56;5089757;28;20024;-78
2022/06/13 00:39:30;;;;;;;4.32;1.52;;;;;;;21.43;40.98;102376.09;5090244;28;20036;-78
2022/06/13 00:41:56;;;;;;;9.82;2.22;;;;;;;21.65;40.28;102365.66;5089990;28;20032;-83
2022/06/13 00:44:30;;;;;;;5.38;2.00;;;;;;;21.53;40.66;102366.47;5089930;28;20024;-78
2022/06/13 00:46:56;;;;;;;3.22;1.42;;;;;;;21.57;40.48;102370.19;5089886;28;20483;-78
2022/06/13 00:49:25;;;;;;;5.30;2.13;;;;;;;21.54;40.56;102370.91;5089986;28;20085;-77
2022/06/13 00:51:56;;;;;;;8.48;2.85;;;;;;;21.59;40.43;102365.88;5089834;28;20032;-77
2022/06/13 00:54:22;;;;;;;5.60;1.90;;;;;;;21.56;40.55;102363.81;5089365;28;20024;-77
2022/06/13 00:56:50;;;;;;;7.30;2.10;;;;;;;21.64;40.25;102361.25;5089613;28;20043;-78
2022/06/13 00:59:19;;;;;;;7.93;2.20;;;;;;;21.55;40.79;102364.16;5089538;28;20589;-93
2022/06/13 01:01:45;;;;;;;8.63;2.47;;;;;;;21.54;40.82;102365.34;5089288;28;20028;-77
2022/06/13 01:04:11;;;;;;;5.55;2.20;;;;;;;21.65;40.50;102369.25;5089480;28;20584;-80
2022/06/13 01:06:45;;;;;;;9.73;2.53;;;;;;;21.62;40.63;102374.72;5089466;28;20120;-78
2022/06/13 01:09:13;;;;;;;5.88;2.22;;;;;;;21.64;40.62;102359.28;5089706;28;20033;-92
2022/06/13 01:11:46;;;;;;;9.07;2.00;;;;;;;21.65;40.57;102360.09;5089102;28;20043;-78
2022/06/13 01:14:32;;;;;;;6.45;2.30;;;;;;;21.66;40.70;102358.94;5089237;28;20148;-94
2022/06/13 01:17:14;;;;;;;5.18;2.22;;;;;;;21.59;40.82;102357.53;5089337;28;20035;-78
2022/06/13 01:20:13;;;;;;;8.38;2.33;;;;;;;21.51;40.92;102361.25;5088651;28;20478;-78
2022/06/13 01:23:15;;;;;;;4.65;2.03;;;;;;;21.69;40.49;102358.22;5089137;28;20032;-78
2022/06/13 01:26:07;;;;;;;6.43;2.17;;;;;;;21.72;40.59;102365.88;5089299;28;20035;-78
2022/06/13 01:28:38;;;;;;;7.72;2.35;;;;;;;21.65;40.90;102368.44;5084756;28;20040;-78
2022/06/13 01:31:42;;;;;;;9.15;2.40;;;;;;;21.57;40.98;102361.84;5076649;28;20029;-77
2022/06/13 01:34:26;;;;;;;6.40;1.92;;;;;;;21.60;41.04;102363.91;5071178;28;20438;-78
2022/06/13 01:37:36;;;;;;;7.30;1.90;;;;;;;21.55;41.24;102359.41;5075416;28;20036;-78
2022/06/13 01:40:16;;;;;;;7.70;1.90;;;;;;;21.55;41.02;102364.97;5053852;28;20044;-78
2022/06/13 01:43:06;;;;;;;8.30;2.60;;;;;;;21.45;41.39;102359.88;5055443;28;20029;-78
2022/06/13 01:45:53;;;;;;;9.38;2.88;;;;;;;21.33;41.89;102371.00;5055758;28;20025;-78
2022/06/13 01:48:34;;;;;;;5.70;2.50;;;;;;;21.33;41.75;102368.22;5055541;28;20036;-78
2022/06/13 01:51:25;;;;;;;7.68;2.25;;;;;;;21.41;41.78;102369.28;5055300;28;20509;-78
2022/06/13 01:54:14;;;;;;;8.60;2.38;;;;;;;21.30;41.84;102360.56;5055838;28;20024;-77
2022/06/13 01:56:52;;;;;;;5.88;2.28;;;;;;;21.38;41.76;102365.19;5055366;28;20035;-77
2022/06/13 01:59:52;;;;;;;9.32;2.40;;;;;;;21.39;41.84;102361.28;5061641;28;20040;-78
2022/06/13 02:02:43;;;;;;;7.80;2.20;;;;;;;21.34;41.90;102369.84;5074942;28;20428;-77
2022/06/13 02:05:25;;;;;;;7.95;2.55;;;;;;;21.21;42.13;102357.88;5074973;28;20483;-78
2022/06/13 02:08:11;;;;;;;10.10;2.88;;;;;;;21.15;42.09;102350.09;5074805;28;20066;-78
2022/06/13 02:10:42;;;;;;;5.63;2.53;;;;;;;21.19;42.06;102349.06;5075421;28;20066;-77
2022/06/13 02:13:18;;;;;;;9.35;2.90;;;;;;;21.31;41.93;102351.06;5073191;28;20040;-77
2022/06/13 02:15:53;;;;;;;11.60;2.00;;;;;;;21.25;41.88;102344.09;5074789;28;20031;-77
2022/06/13 02:18:28;;;;;;;5.00;2.10;;;;;;;21.11;42.28;102350.00;5074813;28;20044;-78
2022/06/13 02:21:02;;;;;;;7.70;2.35;;;;;;;21.30;41.89;102357.78;5074537;28;20025;-77
2022/06/13 02:23:32;;;;;;;6.00;1.90;;;;;;;21.39;41.56;102352.94;5075273;28;20485;-78
2022/06/13 02:26:05;;;;;;;9.65;2.08;;;;;;;21.33;41.74;102352.34;5074531;28;20024;-77
2022/06/13 02:28:53;;;;;;;12.43;2.58;;;;;;;21.35;41.57;102351.19;5074106;28;20035;-77
2022/06/13 02:31:36;;;;;;;10.00;2.35;;;;;;;21.39;41.73;102352.13;5073902;28;20110;-78
2022/06/13 02:34:09;;;;;;;6.95;2.63;;;;;;;21.40;41.52;102357.34;5074518;28;20085;-77
2022/06/13 02:36:46;;;;;;;8.43;2.47;;;;;;;21.45;41.55;102365.44;5074366;28;20028;-82
2022/06/13 02:39:24;;;;;;;8.68;2.42;;;;;;;21.47;41.53;102368.69;5073229;28;20510;-78
2022/06/13 02:42:05;;;;;;;9.52;2.05;;;;;;;21.47;41.49;102368.69;5073089;28;20029;-78
2022/06/13 02:44:49;;;;;;;6.20;1.73;;;;;;;21.46;41.47;102366.25;5074023;28;20021;-78
2022/06/13 02:47:24;;;;;;;5.72;2.28;;;;;;;21.47;41.38;102362.31;5073552;28;20029;-78
2022/06/13 02:50:02;;;;;;;9.93;3.13;;;;;;;21.43;41.80;102362.19;5070810;28;20086;-77
2022/06/13 02:52:55;;;;;;;10.75;2.60;;;;;;;21.45;41.52;102365.44;5071123;28;20028;-78
2022/06/13 02:55:21;;;;;;;9.40;2.20;;;;;;;21.43;41.63;102361.38;5072471;28;20053;-77
2022/06/13 02:57:47;;;;;;;8.55;2.05;;;;;;;21.35;41.64;102365.09;5073199;28;20028;-89
2022/06/13 03:00:31;;;;;;;8.57;2.45;;;;;;;21.45;41.33;102367.41;5073324;28;20028;-78
2022/06/13 03:03:20;;;;;;;11.80;2.50;;;;;;;21.52;41.27;102375.97;5072270;28;20024;-78
2022/06/13 03:06:06;;;;;;;12.00;2.17;;;;;;;21.50;41.48;102375.53;5070911;28;20161;-91
2022/06/13 03:08:47;;;;;;;7.75;2.20;;;;;;;21.63;41.00;102370.78;5071319;28;20028;-78
2022/06/13 03:11:31;;;;;;;8.88;2.28;;;;;;;21.56;41.21;102365.78;5071433;28;20021;-78
2022/06/13 03:14:09;;;;;;;11.93;3.83;;;;;;;21.53;41.36;102367.28;5072797;28;20025;-79
2022/06/13 03:16:42;;;;;;;7.15;2.33;;;;;;;21.56;41.44;102365.78;5071537;28;20021;-78
2022/06/13 03:19:15;;;;;;;6.43;2.30;;;;;;;21.47;41.46;102367.88;5072483;28;20147;-78
2022/06/13 03:21:47;;;;;;;7.78;2.67;;;;;;;21.46;41.33;102372.63;5073023;28;20020;-77
2022/06/13 03:24:50;;;;;;;8.07;2.38;;;;;;;21.37;41.53;102374.69;5072867;28;20119;-78
2022/06/13 03:27:42;;;;;;;7.28;2.00;;;;;;;21.49;41.19;102377.50;5071969;28;20376;-77
2022/06/13 03:30:12;;;;;;;10.15;2.65;;;;;;;21.53;41.16;102375.63;5067366;28;20036;-78
2022/06/13 03:33:39;;;;;;;9.52;2.88;;;;;;;21.51;41.14;102379.91;5073027;28;20028;-83
2022/06/13 03:35:32;;;;;;;9.68;3.13;;;;;;;21.43;41.25;102372.50;5070158;28;20029;-78
2022/06/13 03:37:59;;;;;;;7.05;2.13;;;;;;;21.49;41.18;102377.50;5072883;28;20024;-78
2022/06/13 03:40:28;;;;;;;8.00;2.83;;;;;;;21.48;41.03;102377.84;5072671;28;20021;-77
2022/06/13 03:42:57;;;;;;;10.38;2.72;;;;;;;21.46;41.23;102372.63;5072504;28;20020;-77
2022/06/13 03:45:28;;;;;;;11.88;2.63;;;;;;;21.44;41.08;102374.94;5072523;28;20474;-78
2022/06/13 03:48:17;;;;;;;7.07;2.53;;;;;;;21.46;41.17;102380.97;5072569;28;20017;-78
2022/06/13 03:50:53;;;;;;;12.45;2.03;;;;;;;21.47;40.90;102377.03;5071365;28;20028;-78
2022/06/13 03:53:26;;;;;;;8.98;2.67;;;;;;;21.46;41.13;102369.03;5072409;28;20020;-78
2022/06/13 03:56:06;;;;;;;4.45;1.67;;;;;;;21.36;41.25;102375.06;5072755;28;20025;-90
2022/06/13 03:58:38;;;;;;;11.52;3.50;;;;;;;21.28;41.62;102377.59;5072456;28;20017;-78
2022/06/13 04:01:15;;;;;;;12.55;2.95;;;;;;;21.24;41.76;102381.41;5072510;28;21767;-78
2022/06/13 04:03:42;;;;;;;12.45;2.40;;;;;;;21.35;41.46;102381.78;5069470;28;20020;-78
2022/06/13 04:06:38;;;;;;;4.22;1.83;;;;;;;21.39;41.18;102383.53;5072765;28;20024;-78
2022/06/13 04:09:27;;;;;;;7.00;2.40;;;;;;;21.40;41.15;102382.38;5071302;28;20059;-78
2022/06/13 04:12:14;;;;;;;8.55;2.03;;;;;;;21.82;40.34;102374.56;5072011;28;20020;-77
2022/06/13 04:14:55;;;;;;;8.10;1.88;;;;;;;21.81;40.25;102386.03;5070235;28;20020;-78
2022/06/13 04:17:43;;;;;;;9.43;2.13;;;;;;;21.75;40.59;102390.22;5070519;28;20478;-85
2022/06/13 04:20:39;;;;;;;12.20;2.10;;;;;;;21.55;40.69;102395.56;5071332;28;20028;-78
2022/06/13 04:23:35;;;;;;;7.88;1.80;;;;;;;21.55;40.64;102394.78;5071185;28;20024;-77
2022/06/13 04:26:13;;;;;;;7.43;2.45;;;;;;;21.55;40.78;102392.78;5072478;28;20077;-78
2022/06/13 04:28:44;;;;;;;10.60;2.20;;;;;;;21.52;40.96;102393.47;5072415;28;20052;-81
2022/06/13 04:31:11;;;;;;;10.18;2.85;;;;;;;21.70;40.56;102393.25;5071954;28;21302;-78
2022/06/13 04:33:45;;;;;;;11.30;3.45;;;;;;;21.57;40.84;102407.16;5070495;28;20025;-77
2022/06/13 04:36:12;;;;;;;6.53;2.38;;;;;;;21.59;40.74;102412.38;5072732;28;20383;-88
2022/06/13 04:38:46;;;;;;;6.03;1.65;;;;;;;21.71;40.74;102394.88;5072220;28;20033;-76
2022/06/13 04:41:14;;;;;;;10.00;2.28;;;;;;;21.70;40.46;102393.25;5071942;28;20067;-92
2022/06/13 04:43:44;;;;;;;8.40;2.33;;;;;;;21.66;40.58;102395.09;5072719;28;20028;-78
2022/06/13 04:46:17;;;;;;;6.47;2.55;;;;;;;21.75;40.53;102401.34;5072089;28;20072;-78
2022/06/13 04:48:46;;;;;;;8.02;2.35;;;;;;;21.68;40.66;102403.91;5072324;28;20032;-90
2022/06/13 04:51:30;;;;;;;9.57;2.03;;;;;;;21.68;40.72;102404.72;5072427;28;20017;-89
2022/06/13 04:54:22;;;;;;;8.10;2.60;;;;;;;21.54;40.84;102395.94;5070263;28;20020;-90
2022/06/13 04:56:48;;;;;;;9.32;2.10;;;;;;;21.63;40.65;102399.41;5069327;28;20029;-78
2022/06/13 04:59:15;;;;;;;10.55;2.60;;;;;;;21.58;40.61;102402.41;5072092;28;20545;-90
2022/06/13 05:01:47;;;;;;;10.07;2.17;;;;;;;21.63;40.52;102406.94;5072283;28;20082;-78
2022/06/13 05:04:16;;;;;;;7.93;2.28;;;;;;;21.65;40.52;102407.38;5072405;28;20025;-89
2022/06/13 05:06:53;;;;;;;11.02;2.70;;;;;;;21.61;40.60;102410.03;5075786;28;20021;-84
2022/06/13 05:09:35;;;;;;;7.63;2.15;;;;;;;21.70;40.33;102409.94;5070946;28;20027;-87
2022/06/13 05:12:30;;;;;;;8.52;2.45;;;;;;;21.56;40.62;102411.09;5075559;28;20036;-77
2022/06/13 05:14:59;;;;;;;8.65;2.28;;;;;;;21.51;40.87;102408.53;5073542;28;20032;-88
2022/06/13 05:17:40;;;;;;;6.10;2.38;;;;;;;21.41;40.91;102411.78;5076396;28;20023;-76
2022/06/13 05:20:18;;;;;;;9.98;2.22;;;;;;;21.56;40.55;102405.53;5072424;28;20043;-88
2022/06/13 05:23:25;;;;;;;6.70;1.75;;;;;;;21.51;40.75;102413.28;5072110;28;20498;-81
2022/06/13 05:25:55;;;;;;;6.63;2.30;;;;;;;21.65;40.54;102410.97;5066271;28;20071;-76
2022/06/13 05:28:29;;;;;;;9.15;2.60;;;;;;;21.63;40.60;102409.72;5074791;28;20032;-76
2022/06/13 05:30:58;;;;;;;10.35;2.10;;;;;;;21.59;40.79;102404.84;5075859;28;20029;-89
2022/06/13 05:33:33;;;;;;;6.10;2.30;;;;;;;21.68;40.69;102401.13;5076001;28;20028;-88
2022/06/13 05:36:01;;;;;;;11.35;2.83;;;;;;;21.68;40.78;102410.28;5073531;28;20095;-77
2022/06/13 05:38:34;;;;;;;8.68;2.67;;;;;;;21.68;40.77;102404.72;5075575;28;20031;-89
2022/06/13 05:41:00;;;;;;;11.98;3.17;;;;;;;21.76;40.41;102402.97;5072991;28;20029;-76
2022/06/13 05:43:26;;;;;;;8.85;2.55;;;;;;;21.77;40.50;102415.75;5075275;28;20555;-91
2022/06/13 05:45:52;;;;;;;19.17;4.55;;;;;;;21.70;40.65;102407.97;5075219;28;20016;-77
2022/06/13 05:48:20;;;;;;;7.70;2.08;;;;;;;21.73;40.57;102406.44;5073202;28;20032;-78
2022/06/13 05:50:46;;;;;;;7.95;1.77;;;;;;;21.78;40.29;102400.66;5074365;28;20032;-77
2022/06/13 05:53:15;;;;;;;8.95;2.25;;;;;;;21.68;40.40;102415.03;5073590;28;20028;-89
2022/06/13 05:55:42;;;;;;;8.45;2.25;;;;;;;21.75;40.39;102416.06;5075314;28;20078;-88
2022/06/13 05:58:12;;;;;;;8.95;1.92;;;;;;;21.88;40.21;102419.66;5074870;28;20036;-78
2022/06/13 06:00:49;;;;;;;13.77;2.85;;;;;;;21.70;40.43;102419.09;5074331;28;20034;-88
2022/06/13 06:03:16;;;;;;;12.20;2.58;;;;;;;21.86;39.93;102414.44;5074838;28;20048;-78
2022/06/13 06:05:43;;;;;;;6.30;2.65;;;;;;;22.05;39.89;102419.38;5073138;28;20485;-78
2022/06/13 06:08:31;;;;;;;12.80;3.70;;;;;;;22.12;39.59;102416.84;5074423;28;20437;-77
2022/06/13 06:10:58;;;;;;;5.40;2.25;;;;;;;22.28;39.31;102407.75;5073872;28;20443;-79
2022/06/13 06:13:25;;;;;;;16.05;2.75;;;;;;;22.16;39.61;102411.41;5072496;28;20025;-81
2022/06/13 06:15:52;;;;;;;11.38;3.15;;;;;;;21.99;39.91;102404.13;5074321;28;20021;-90
2022/06/13 06:18:19;;;;;;;12.95;2.92;;;;;;;22.05;39.89;102405.47;5073020;28;20037;-78
2022/06/13 06:20:45;;;;;;;10.23;3.45;;;;;;;22.07;40.00;102407.94;5075614;28;20025;-80
2022/06/13 06:23:12;;;;;;;11.15;3.28;;;;;;;22.04;39.93;102400.25;5075540;28;20079;-90
2022/06/13 06:25:39;;;;;;;7.88;2.90;;;;;;;21.97;40.38;102391.69;5074276;28;20430;-90
2022/06/13 06:28:05;;;;;;;11.77;3.20;;;;;;;22.06;40.11;102395.16;5074507;28;20032;-88
2022/06/13 06:30:32;;;;;;;11.00;3.33;;;;;;;22.17;39.94;102401.09;5075059;28;20509;-86
2022/06/13 06:32:58;;;;;;;15.57;3.28;;;;;;;22.35;39.82;102405.19;5075457;28;20032;-88
2022/06/13 06:35:26;;;;;;;8.65;2.70;;;;;;;22.51;39.40;102397.69;5075665;28;20036;-77
2022/06/13 06:37:54;;;;;;;8.77;2.65;;;;;;;22.41;39.60;102407.38;5074155;28;20020;-87
2022/06/13 06:40:22;;;;;;;12.93;4.03;;;;;;;22.56;39.43;102403.03;5073774;28;20029;-77
2022/06/13 06:42:48;;;;;;;11.52;3.03;;;;;;;22.61;39.36;102402.78;5072289;28;20644;-88
2022/06/13 06:45:14;;;;;;;13.48;3.88;;;;;;;22.70;39.25;102416.53;5064141;28;20033;-78
2022/06/13 06:47:40;;;;;;;9.45;3.28;;;;;;;22.65;39.48;102406.44;5062914;28;20054;-78
2022/06/13 06:50:13;;;;;;;13.60;3.95;;;;;;;22.55;39.65;102423.69;5074381;28;20024;-87
2022/06/13 06:52:39;;;;;;;10.82;3.55;;;;;;;22.62;39.50;102423.09;5074252;28;20386;-77
2022/06/13 07:00:37;;;;;;;8.85;2.70;;;;;;;22.80;39.16;102409.63;5073860;28;20608;-78
2022/06/13 07:03:02;;;;;;;17.73;4.40;;;;;;;22.70;39.44;102417.34;5073858;28;20036;-77
2022/06/13 07:05:28;;;;;;;12.50;3.17;;;;;;;22.88;39.07;102415.06;5074156;28;20029;-90
2022/06/13 07:07:53;;;;;;;10.75;3.92;;;;;;;22.91;39.02;102414.38;5071951;28;20032;-78
2022/06/13 07:10:19;;;;;;;12.85;3.15;;;;;;;23.00;38.57;102414.22;5072859;28;20039;-77
2022/06/13 07:12:45;;;;;;;10.45;3.17;;;;;;;23.14;38.41;102414.59;5072546;28;20089;-79
2022/06/13 07:15:14;;;;;;;13.45;3.88;;;;;;;22.94;38.73;102413.66;5074077;28;20098;-91
2022/06/13 07:17:40;;;;;;;7.80;2.40;;;;;;;23.17;38.14;102416.66;5073208;28;20507;-79
2022/06/13 07:20:06;;;;;;;10.15;3.70;;;;;;;23.19;38.40;102414.31;5072299;28;20036;-77
2022/06/13 07:22:32;;;;;;;12.50;2.60;;;;;;;23.30;38.22;102419.38;5072648;28;20036;-77
2022/06/13 07:24:57;;;;;;;12.13;3.67;;;;;;;23.15;38.34;102413.41;5071971;28;20028;-79
2022/06/13 07:27:23;;;;;;;9.60;2.88;;;;;;;23.35;38.10;102419.91;5069897;28;20103;-87
2022/06/13 07:29:49;;;;;;;12.75;3.15;;;;;;;23.40;37.85;102418.81;5073135;28;20066;-77
2022/06/13 07:32:19;;;;;;;7.95;2.42;;;;;;;23.40;37.89;102424.38;5073148;28;20032;-77
2022/06/13 07:34:47;;;;;;;15.05;3.05;;;;;;;23.50;38.13;102418.25;5072960;28;20033;-76
2022/06/13 07:38:16;;;;;;;12.85;3.03;;;;;;;23.60;38.07;102417.75;5074368;28;20066;-87
2022/06/13 07:40:04;;;;;;;19.80;5.15;;;;;;;23.69;38.14;102418.38;5080424;28;20499;-78
2022/06/13 07:42:40;;;;;;;10.88;3.08;;;;;;;23.67;37.60;102420.72;5058537;28;20025;-78
2022/06/13 07:45:09;;;;;;;15.73;3.40;;;;;;;23.84;37.59;102427.06;5063711;28;20044;-78
2022/06/13 07:47:35;;;;;;;12.10;3.75;;;;;;;24.23;37.02;102419.56;5073888;28;20032;-81
2022/06/13 07:50:00;;;;;;;19.42;4.35;;;;;;;24.48;36.34;102423.72;5073280;28;20049;-77
2022/06/13 07:52:26;;;;;;;9.38;3.05;;;;;;;24.61;36.45;102427.19;5067048;28;20028;-88
2022/06/13 07:54:51;;;;;;;16.48;3.25;;;;;;;24.74;36.01;102422.25;5073863;28;20027;-87
2022/06/13 07:57:18;;;;;;;14.98;4.68;;;;;;;24.74;36.09;102425.84;5071254;28;20039;-79
2022/06/13 07:59:44;;;;;;;12.00;3.58;;;;;;;24.95;35.66;102413.47;5073036;28;20024;-84
2022/06/13 08:02:17;;;;;;;9.13;2.72;;;;;;;24.97;35.49;102423.09;5072701;28;20021;-85
2022/06/13 08:04:42;;;;;;;14.07;3.53;;;;;;;24.89;35.45;102427.75;5071192;28;20024;-86
2022/06/13 08:07:13;;;;;;;9.77;2.80;;;;;;;25.05;35.54;102429.66;5070692;28;20105;-87
2022/06/13 08:09:39;;;;;;;12.77;3.10;;;;;;;25.04;35.55;102422.44;5073230;28;20036;-77
2022/06/13 08:12:06;;;;;;;13.07;3.40;;;;;;;25.03;35.14;102430.03;5069026;28;20029;-87
2022/06/13 08:14:32;;;;;;;8.23;2.85;;;;;;;25.22;35.09;102422.75;5072118;28;20021;-78
2022/06/13 08:16:58;;;;;;;18.63;5.07;;;;;;;25.17;34.82;102427.50;5071957;28;20090;-79
2022/06/13 08:19:24;;;;;;;8.40;2.10;;;;;;;24.99;34.75;102431.09;5071515;28;20049;-77
2022/06/13 08:21:51;;;;;;;12.80;2.60;;;;;;;25.14;34.37;102422.63;5072618;28;20025;-78
2022/06/13 08:24:17;;;;;;;8.93;2.53;;;;;;;25.37;34.15;102430.22;5073266;28;20024;-88
2022/06/13 08:26:43;;;;;;;10.80;2.70;;;;;;;24.95;34.41;102428.25;5071626;28;20387;-86
2022/06/13 08:29:09;;;;;;;10.90;3.08;;;;;;;25.10;34.26;102430.16;5072101;28;20035;-78
2022/06/13 08:31:36;;;;;;;15.85;3.20;;;;;;;24.91;34.08;102427.38;5071972;28;20123;-78
2022/06/13 08:34:04;;;;;;;16.70;4.40;;;;;;;25.18;34.05;102434.69;5072663;28;20383;-77
2022/06/13 08:36:30;;;;;;;15.63;4.38;;;;;;;25.23;33.65;102439.16;5072347;28;20025;-87
2022/06/13 08:38:55;;;;;;;17.58;4.05;;;;;;;25.37;33.46;102436.59;5072628;28;20390;-84
2022/06/13 08:41:34;;;;;;;7.47;2.78;;;;;;;25.32;33.69;102444.53;5072221;28;20031;-86
2022/06/13 08:44:17;;;;;;;9.80;2.77;;;;;;;25.58;33.19;102441.75;5074515;28;20032;-83
2022/06/13 08:47:04;;;;;;;7.80;3.15;;;;;;;25.84;33.17;102440.19;5074866;28;20374;-85
2022/06/13 08:50:07;;;;;;;10.80;3.38;;;;;;;25.90;33.13;102447.88;5072998;28;20033;-84
2022/06/13 08:52:44;;;;;;;7.97;3.42;;;;;;;25.65;33.32;102443.88;5073011;28;20032;-84
2022/06/13 08:55:22;;;;;;;9.40;2.15;;;;;;;25.65;33.32;102429.88;5074424;28;20036;-84
2022/06/13 08:58:15;;;;;;;11.35;2.28;;;;;;;26.10;32.56;102433.78;5072668;28;20024;-84
2022/06/13 09:00:49;;;;;;;20.75;3.47;;;;;;;25.76;33.25;102442.06;5072215;28;20124;-84
2022/06/13 09:03:23;;;;;;;15.13;3.63;;;;;;;25.85;32.65;102441.81;5074591;28;20044;-83
2022/06/13 09:06:17;;;;;;;12.48;3.33;;;;;;;25.90;32.55;102430.28;5074397;28;20033;-84
2022/06/13 09:08:56;;;;;;;8.30;2.53;;;;;;;25.84;32.56;102431.78;5075481;28;20029;-84
2022/06/13 09:11:23;;;;;;;7.03;2.35;;;;;;;26.29;31.86;102430.81;5074363;28;20494;-86
2022/06/13 09:14:23;;;;;;;10.80;2.83;;;;;;;26.47;31.83;102433.88;5075274;28;20031;-85
2022/06/13 09:17:20;;;;;;;14.73;4.15;;;;;;;26.54;31.96;102428.38;5061991;28;20094;-85
2022/06/13 09:20:14;;;;;;;8.32;2.22;;;;;;;26.59;31.71;102432.81;5074358;28;20044;-84
2022/06/13 09:22:40;;;;;;;8.82;2.58;;;;;;;26.32;31.42;102441.28;5066104;28;20401;-86
2022/06/13 09:25:14;;;;;;;23.90;3.95;;;;;;;26.47;31.04;102423.47;5073921;28;20491;-86
2022/06/13 09:27:54;;;;;;;12.82;3.13;;;;;;;26.64;30.86;102424.88;5073689;28;20021;-84
2022/06/13 09:30:35;;;;;;;10.40;2.85;;;;;;;26.64;30.97;102427.69;5075286;28;20025;-85
2022/06/13 09:33:31;;;;;;;8.95;2.83;;;;;;;26.21;30.35;102435.50;5073370;28;20458;-84
2022/06/13 09:36:33;;;;;;;11.10;3.03;;;;;;;26.15;30.50;102436.25;5073719;28;20078;-84
2022/06/13 09:39:04;;;;;;;8.80;2.47;;;;;;;26.48;30.49;102436.31;5036919;28;20041;-86
2022/06/13 09:41:48;;;;;;;7.38;2.10;;;;;;;26.58;30.55;102429.19;5074626;28;20387;-85
2022/06/13 09:44:28;;;;;;;8.90;2.42;;;;;;;26.61;30.57;102424.84;5074691;28;20024;-84
2022/06/13 09:47:20;;;;;;;9.65;2.88;;;;;;;26.39;31.13;102430.19;5070259;28;20055;-85
2022/06/13 09:50:07;;;;;;;13.13;3.55;;;;;;;26.75;30.06;102430.59;5072007;28;20024;-87
2022/06/13 09:52:45;;;;;;;6.72;2.90;;;;;;;26.94;30.01;102422.00;5073427;28;20028;-84
2022/06/13 09:55:32;;;;;;;6.80;2.63;;;;;;;27.07;30.04;102417.75;5073272;28;20093;-85
2022/06/13 09:58:01;;;;;;;9.77;2.78;;;;;;;27.36;29.79;102426.44;5070601;28;20471;-85
2022/06/13 10:00:47;;;;;;;8.90;2.95;;;;;;;27.42;29.45;102424.84;5073324;28;20120;-83
2022/06/13 10:03:50;;;;;;;10.82;2.90;;;;;;;27.48;29.47;102423.31;5073406;28;20054;-85
2022/06/13 10:06:21;;;;;;;7.00;2.00;;;;;;;27.49;29.42;102419.31;5073186;28;20020;-86
2022/06/13 10:09:06;;;;;;;8.73;2.03;;;;;;;26.96;29.44;102421.59;5074630;28;20028;-83
2022/06/13 10:11:57;;;;;;;10.25;2.55;;;;;;;27.00;28.99;102430.88;5072518;28;20032;-86
2022/06/13 10:14:41;;;;;;;9.50;2.67;;;;;;;27.35;29.12;102422.00;5062161;28;20031;-86
2022/06/13 10:17:27;;;;;;;11.35;3.17;;;;;;;27.40;28.52;102423.63;5061438;28;20368;-86
2022/06/13 10:20:15;;;;;;;20.08;3.22;;;;;;;27.49;28.02;102413.69;5064479;28;20051;-84
2022/06/13 10:23:25;;;;;;;10.65;2.97;;;;;;;27.62;28.03;102422.63;5073866;28;20032;-85
2022/06/13 10:26:07;;;;;;;9.50;2.20;;;;;;;27.83;27.81;102424.78;5062012;28;20390;-86
2022/06/13 10:28:57;;;;;;;11.77;3.10;;;;;;;27.82;28.32;102423.19;5073141;28;20024;-86
2022/06/13 10:31:55;;;;;;;6.55;1.63;;;;;;;27.85;27.66;102428.81;5073509;28;20024;-84
2022/06/13 10:34:25;;;;;;;9.25;2.58;;;;;;;27.98;27.41;102420.88;5061653;28;20023;-85
2022/06/13 10:37:03;;;;;;;;;;;;;;;27.70;27.31;102412.25;5058979;28;20017;-84
2022/06/13 10:39:30;;;;;;;6.60;2.40;;;;;;;27.64;27.25;102415.41;5057650;28;20068;-84
2022/06/13 10:42:03;;;;;;;6.00;1.67;;;;;;;27.64;26.36;102421.00;5057217;28;20024;-85
2022/06/13 10:44:29;;;;;;;6.80;1.98;;;;;;;27.74;26.27;102425.16;5058759;28;20024;-86
2022/06/13 10:47:03;;;;;;;8.80;2.67;;;;;;;27.39;26.66;102420.03;5060042;28;20055;-86
2022/06/13 10:49:32;;;;;;;10.15;2.22;;;;;;;27.67;26.58;102427.06;5058867;28;20491;-86
2022/06/13 10:52:03;;;;;;;9.13;2.72;;;;;;;27.79;26.15;102418.34;5059968;28;20032;-85
2022/06/13 10:55:03;;;;;;;6.00;2.35;;;;;;;27.70;26.34;102423.50;5059314;28;20032;-87
2022/06/13 10:57:34;;;;;;;9.50;2.72;;;;;;;27.26;26.01;102421.50;5073317;28;20070;-86
2022/06/13 11:00:21;;;;;;;4.97;2.60;;;;;;;27.04;25.94;102420.50;5068756;28;20028;-86
2022/06/13 11:02:48;;;;;;;7.55;1.90;;;;;;;27.20;25.68;102421.06;5064561;28;20024;-85
2022/06/13 11:05:17;;;;;;;13.27;3.72;;;;;;;27.45;25.40;102412.88;5072535;28;20044;-86
2022/06/13 11:08:03;;;;;;;4.40;1.75;;;;;;;27.68;24.47;102411.84;5072464;28;20411;-84
2022/06/13 11:10:34;;;;;;;6.43;2.00;;;;;;;28.03;25.07;102409.25;5072588;28;20032;-85
2022/06/13 11:13:04;;;;;;;9.30;2.78;;;;;;;28.40;24.50;102408.25;5072784;28;20025;-86
2022/06/13 11:24:16;;;;;;;6.40;2.17;;;;;;;28.06;24.21;102402.84;5073856;28;20035;-85
2022/06/13 11:29:31;;;;;;;6.80;2.05;;;;;;;28.17;24.76;102402.91;5073872;28;20055;-85
2022/06/13 11:31:59;;;;;;;11.80;4.40;;;;;;;27.94;25.03;102406.00;5072359;28;20166;-87
2022/06/13 11:34:27;;;;;;;10.75;2.03;;;;;;;27.62;25.46;102400.16;5072094;28;20027;-86
2022/06/13 11:37:17;;;;;;;8.93;2.15;;;;;;;27.65;25.43;102410.59;5072261;28;20102;-84
2022/06/13 11:39:46;;;;;;;7.57;2.08;;;;;;;27.62;25.68;102412.19;5071728;28;20036;-86
2022/06/13 11:42:32;;;;;;;3.45;1.75;;;;;;;27.63;25.97;102405.38;5071818;28;20441;-85
2022/06/13 11:45:06;;;;;;;6.30;1.92;;;;;;;27.33;26.71;102404.75;5071929;28;20024;-83
2022/06/13 11:47:50;;;;;;;9.00;2.85;;;;;;;27.31;27.04;102407.13;5071644;28;20035;-85
2022/06/13 11:50:18;;;;;;;16.05;3.17;;;;;;;27.55;26.82;102402.91;5063260;28;20031;-85
2022/06/13 11:55:31;;;;;;;6.57;2.20;;;;;;;27.42;27.03;102404.41;5072297;28;20032;-86
2022/06/13 11:58:02;;;;;;;9.05;2.90;;;;;;;27.27;27.27;102398.66;5058121;28;20391;-85
2022/06/13 12:00:36;;;;;;;7.80;2.35;;;;;;;27.02;27.85;102406.84;5071800;28;20049;-85
2022/06/13 12:03:14;;;;;;;7.60;2.10;;;;;;;26.97;27.84;102398.78;5071052;28;20021;-85
2022/06/13 12:05:40;;;;;;;7.38;2.20;;;;;;;27.21;28.03;102385.41;5069269;28;20043;-85
2022/06/13 12:08:14;;;;;;;9.23;3.00;;;;;;;27.26;27.86;102391.44;5071163;28;20059;-85
2022/06/13 12:11:01;;;;;;;9.35;1.88;;;;;;;27.13;28.13;102390.16;5071557;28;20093;-86
2022/06/13 12:13:33;;;;;;;9.77;3.25;;;;;;;26.94;28.02;102387.53;5072272;28;20040;-85
2022/06/13 12:16:18;;;;;;;16.63;4.18;;;;;;;26.99;28.51;102396.41;5071768;28;20034;-84
2022/06/13 12:19:14;;;;;;;6.00;2.20;;;;;;;27.16;28.31;102385.75;5071366;28;20143;-85
2022/06/13 12:21:43;;;;;;;12.48;2.33;;;;;;;26.99;27.93;102390.78;5067830;28;20387;-86